createdAt,value
2018-09-04T00:01:35.972Z,89.87
2018-09-04T00:04:04.244Z,89.37
2018-09-04T00:06:32.484Z,89.73
2018-09-04T00:09:00.455Z,90.00
2018-09-04T00:11:28.721Z,90.20
2018-09-04T00:13:56.996Z,89.81
2018-09-04T00:16:25.256Z,89.13
2018-09-04T00:18:53.705Z,90.11
2018-09-04T00:21:21.745Z,90.52
2018-09-04T00:23:49.724Z,90.04
2018-09-04T00:26:17.986Z,90.18
2018-09-04T00:28:46.194Z,90.01
2018-09-04T00:31:14.356Z,90.50
2018-09-04T00:33:42.480Z,90.75
2018-09-04T00:36:10.716Z,90.20
2018-09-04T00:38:38.681Z,90.99
2018-09-04T00:41:06.835Z,90.31
2018-09-04T00:43:34.874Z,90.52
2018-09-04T00:46:02.861Z,90.48
2018-09-04T00:48:30.846Z,90.63
2018-09-04T00:50:58.960Z,90.73
2018-09-04T00:53:26.986Z,90.67
2018-09-04T00:55:54.995Z,91.47
2018-09-04T00:58:23.132Z,90.98
2018-09-04T01:00:51.185Z,90.53
2018-09-04T01:03:19.185Z,91.09
2018-09-04T01:05:47.824Z,91.21
2018-09-04T01:08:15.934Z,91.48
2018-09-04T01:10:43.952Z,91.76
2018-09-04T01:13:12.109Z,91.88
2018-09-04T01:15:40.136Z,91.65
2018-09-04T01:18:08.739Z,90.92
2018-09-04T01:20:36.784Z,91.01
2018-09-04T01:23:04.900Z,91.40
2018-09-04T01:25:32.885Z,90.45
2018-09-04T01:28:00.995Z,90.54
2018-09-04T01:30:29.055Z,90.96
2018-09-04T01:32:57.114Z,90.70
2018-09-04T01:35:25.380Z,90.85
2018-09-04T01:37:53.539Z,90.03
2018-09-04T01:40:21.572Z,90.92
2018-09-04T01:42:49.624Z,90.50
2018-09-04T01:45:17.599Z,90.46
2018-09-04T01:47:45.651Z,89.69
2018-09-04T01:50:13.715Z,89.92
2018-09-04T01:52:41.749Z,90.63
2018-09-04T01:55:09.758Z,90.86
2018-09-04T01:57:37.810Z,90.39
2018-09-04T02:00:07.585Z,89.71
2018-09-04T02:02:35.685Z,90.55
2018-09-04T02:05:03.749Z,91.61
2018-09-04T02:07:31.996Z,91.50
2018-09-04T02:10:00.185Z,91.16
2018-09-04T02:12:28.239Z,91.66
2018-09-04T02:14:56.360Z,92.06
2018-09-04T02:17:24.600Z,91.42
2018-09-04T02:19:52.580Z,91.01
2018-09-04T02:22:20.640Z,91.33
2018-09-04T02:24:48.660Z,90.80
2018-09-04T02:27:16.650Z,91.39
2018-09-04T02:29:44.606Z,90.48
2018-09-04T02:32:12.670Z,89.83
2018-09-04T02:34:40.786Z,89.77
2018-09-04T02:37:09.017Z,89.69
2018-09-04T02:39:37.072Z,89.59
2018-09-04T02:42:05.240Z,89.55
2018-09-04T02:44:33.341Z,89.91
2018-09-04T02:47:01.376Z,90.59
2018-09-04T02:49:29.357Z,90.38
2018-09-04T02:51:57.338Z,90.71
2018-09-04T02:54:25.733Z,90.73
2018-09-04T02:56:53.787Z,90.33
2018-09-04T02:59:22.021Z,90.13
2018-09-04T03:01:50.077Z,90.43
2018-09-04T03:04:18.142Z,89.57
2018-09-04T03:06:46.161Z,89.77
2018-09-04T03:09:14.242Z,88.97
2018-09-04T03:11:42.280Z,89.83
2018-09-04T03:14:10.331Z,89.97
2018-09-04T03:16:38.554Z,90.19
2018-09-04T03:19:06.640Z,89.38
2018-09-04T03:21:34.789Z,90.28
2018-09-04T03:24:02.816Z,90.09
2018-09-04T03:26:30.780Z,90.01
2018-09-04T03:28:58.801Z,90.15
2018-09-04T03:31:26.872Z,90.65
2018-09-04T03:33:54.901Z,90.13
2018-09-04T03:36:23.433Z,90.07
2018-09-04T03:38:51.604Z,90.18
2018-09-04T03:41:19.799Z,90.63
2018-09-04T03:43:47.823Z,90.14
2018-09-04T03:46:15.810Z,90.07
2018-09-04T03:48:43.916Z,89.49
2018-09-04T03:51:12.174Z,89.95
2018-09-04T03:53:40.435Z,89.81
2018-09-04T03:56:08.422Z,90.04
2018-09-04T03:58:36.465Z,90.02
2018-09-04T04:01:04.628Z,90.27
2018-09-04T04:03:32.650Z,90.31
2018-09-04T04:06:00.640Z,89.92
2018-09-04T04:08:28.954Z,89.40
2018-09-04T04:10:56.976Z,89.79
2018-09-04T04:13:24.999Z,90.02
2018-09-04T04:15:53.043Z,89.67
2018-09-04T04:18:21.079Z,90.30
2018-09-04T04:20:55.584Z,89.52
2018-09-04T04:23:23.719Z,89.84
2018-09-04T04:25:51.814Z,89.47
2018-09-04T04:28:19.816Z,89.44
2018-09-04T04:30:48.231Z,90.27
2018-09-04T04:33:16.247Z,90.30
2018-09-04T04:35:44.278Z,90.75
2018-09-04T04:38:12.392Z,90.67
2018-09-04T04:40:40.512Z,90.34
2018-09-04T04:43:08.684Z,90.29
2018-09-04T04:45:36.794Z,90.52
2018-09-04T04:48:04.878Z,90.52
2018-09-04T04:50:33.112Z,90.19
2018-09-04T04:53:01.312Z,89.92
2018-09-04T04:55:29.612Z,90.52
2018-09-04T04:57:57.837Z,89.75
2018-09-04T05:00:26.237Z,90.33
2018-09-04T05:02:54.436Z,89.83
2018-09-04T05:05:22.631Z,89.15
2018-09-04T05:07:50.842Z,89.44
2018-09-04T05:10:19.082Z,89.80
2018-09-04T05:12:48.191Z,88.83
2018-09-04T05:15:16.440Z,88.18
2018-09-04T05:17:44.760Z,87.84
2018-09-04T05:20:18.576Z,87.52
2018-09-04T05:22:46.945Z,87.46
2018-09-04T05:25:15.236Z,86.43
2018-09-04T05:27:43.445Z,86.33
2018-09-04T05:30:11.841Z,86.25
2018-09-04T05:33:18.532Z,85.71
2018-09-04T05:35:49.296Z,84.84
2018-09-04T05:38:17.632Z,84.57
2018-09-04T05:40:45.951Z,84.60
2018-09-04T05:44:18.427Z,85.09
2018-09-04T05:46:49.172Z,85.53
2018-09-04T05:49:22.792Z,85.38
2018-09-04T05:51:51.011Z,85.53
2018-09-04T05:54:19.293Z,85.31
2018-09-04T05:56:47.593Z,84.71
2018-09-04T05:59:15.695Z,84.63
2018-09-04T06:01:44.081Z,84.18
2018-09-04T06:04:12.220Z,84.72
2018-09-04T06:06:40.576Z,84.14
2018-09-04T06:09:08.732Z,82.40
2018-09-04T06:11:36.937Z,81.24
2018-09-04T06:14:04.944Z,80.89
2018-09-04T06:16:32.993Z,79.55
2018-09-04T06:19:00.982Z,78.83
2018-09-04T06:21:29.236Z,76.19
2018-09-04T06:23:57.555Z,70.58
2018-09-04T06:26:25.790Z,69.66
2018-09-04T06:28:54.070Z,68.63
2018-09-04T06:31:22.291Z,68.93
2018-09-04T06:33:50.334Z,69.35
2018-09-04T06:36:18.384Z,70.31
2018-09-04T06:38:46.389Z,68.90
2018-09-04T06:41:14.626Z,67.16
2018-09-04T06:43:42.848Z,66.16
2018-09-04T06:46:11.089Z,65.70
2018-09-04T06:48:39.430Z,63.86
2018-09-04T06:51:07.650Z,63.86
2018-09-04T06:53:35.980Z,63.41
2018-09-04T06:56:04.290Z,63.33
2018-09-04T06:58:32.531Z,66.80
2018-09-04T07:01:00.773Z,67.67
2018-09-04T07:03:28.882Z,69.15
2018-09-04T07:05:57.213Z,69.56
2018-09-04T07:08:25.492Z,69.46
2018-09-04T07:10:53.710Z,70.53
2018-09-04T07:13:21.931Z,70.07
2018-09-04T07:15:50.174Z,69.48
2018-09-04T07:18:18.466Z,67.24
2018-09-04T07:20:46.752Z,63.16
2018-09-04T07:23:15.132Z,61.18
2018-09-04T07:25:43.430Z,59.24
2018-09-04T07:28:11.631Z,57.22
2018-09-04T07:30:39.892Z,56.66
2018-09-04T07:33:08.973Z,58.99
2018-09-04T07:35:37.131Z,57.13
2018-09-04T07:38:05.713Z,56.57
2018-09-04T07:40:33.851Z,59.17
2018-09-04T07:43:02.135Z,58.14
2018-09-04T07:45:30.302Z,59.70
2018-09-04T07:47:58.479Z,60.54
2018-09-04T07:50:26.575Z,61.60
2018-09-04T07:52:54.867Z,60.69
2018-09-04T07:55:23.075Z,60.06
2018-09-04T07:57:51.315Z,61.09
2018-09-04T08:00:19.475Z,60.80
2018-09-04T08:02:47.695Z,60.39
2018-09-04T08:05:15.983Z,60.81
2018-09-04T08:07:44.484Z,60.69
2018-09-04T08:10:12.714Z,58.00
2018-09-04T08:12:40.875Z,55.80
2018-09-04T08:15:08.976Z,55.56
2018-09-04T08:17:37.215Z,52.45
2018-09-04T08:20:05.455Z,55.83
2018-09-04T08:22:33.694Z,58.97
2018-09-04T08:25:01.797Z,61.82
2018-09-04T08:27:30.095Z,60.44
2018-09-04T08:29:58.235Z,58.11
2018-09-04T08:32:26.555Z,57.02
2018-09-04T08:34:54.815Z,56.40
2018-09-04T08:37:23.035Z,51.89
2018-09-04T08:39:51.248Z,51.32
2018-09-04T08:42:19.495Z,50.87
2018-09-04T08:44:49.635Z,49.81
2018-09-04T08:47:18.500Z,46.81
2018-09-04T08:49:46.535Z,47.18
2018-09-04T08:52:14.735Z,47.45
2018-09-04T08:54:43.115Z,47.13
2018-09-04T08:57:11.595Z,46.17
2018-09-04T08:59:39.855Z,46.02
2018-09-04T09:02:07.845Z,44.18
2018-09-04T09:04:36.095Z,43.68
2018-09-04T09:07:04.195Z,42.08
2018-09-04T09:09:32.367Z,43.73
2018-09-04T09:12:00.455Z,45.23
2018-09-04T09:14:28.655Z,46.10
2018-09-04T09:16:56.756Z,44.92
2018-09-04T09:19:24.868Z,45.22
2018-09-04T09:21:53.036Z,45.54
2018-09-04T09:24:21.355Z,48.00
2018-09-04T09:26:49.538Z,48.26
2018-09-04T09:29:17.696Z,50.96
2018-09-04T09:31:45.876Z,48.85
2018-09-04T09:34:14.155Z,48.12
2018-09-04T09:36:42.350Z,48.43
2018-09-04T09:39:11.527Z,48.15
2018-09-04T09:41:39.895Z,51.62
2018-09-04T09:44:08.475Z,51.89
2018-09-04T09:46:36.635Z,52.80
2018-09-04T09:49:04.964Z,54.21
2018-09-04T09:51:33.155Z,54.49
2018-09-04T09:54:01.431Z,54.64
2018-09-04T09:56:29.690Z,54.67
2018-09-04T09:58:57.936Z,53.99
2018-09-04T10:01:35.407Z,53.92
2018-09-04T10:04:09.348Z,53.25
2018-09-04T10:06:37.576Z,53.70
2018-09-04T10:09:08.915Z,54.73
2018-09-04T10:11:37.196Z,54.67
2018-09-04T10:14:05.795Z,53.04
2018-09-04T10:16:34.138Z,54.27
2018-09-04T10:19:02.335Z,54.84
2018-09-04T10:21:30.736Z,55.43
2018-09-04T10:23:59.075Z,55.94
2018-09-04T10:26:27.442Z,55.69
2018-09-04T10:28:55.655Z,55.99
2018-09-04T10:31:23.895Z,55.74
2018-09-04T10:33:52.134Z,55.51
2018-09-04T10:36:20.405Z,55.14
2018-09-04T10:38:48.535Z,55.19
2018-09-04T10:41:16.774Z,54.64
2018-09-04T10:43:44.894Z,56.51
2018-09-04T10:46:14.995Z,56.32
2018-09-04T10:48:43.195Z,54.79
2018-09-04T10:51:11.361Z,55.05
2018-09-04T10:53:39.495Z,55.00
2018-09-04T10:56:07.696Z,54.50
2018-09-04T10:58:35.855Z,52.16
2018-09-04T11:01:04.075Z,50.63
2018-09-04T11:03:32.296Z,48.03
2018-09-04T11:06:00.755Z,45.68
2018-09-04T11:08:28.940Z,44.00
2018-09-04T11:10:57.117Z,44.64
2018-09-04T11:13:25.375Z,45.67
2018-09-04T11:16:00.255Z,44.79
2018-09-04T11:18:28.408Z,44.78
2018-09-04T11:20:56.656Z,44.04
2018-09-04T11:23:24.840Z,44.08
2018-09-04T11:25:53.115Z,44.19
2018-09-04T11:28:22.111Z,43.96
2018-09-04T11:30:50.271Z,50.79
2018-09-04T11:33:18.428Z,49.93
2018-09-04T11:35:46.696Z,49.02
2018-09-04T11:38:14.849Z,50.32
2018-09-04T11:40:43.424Z,50.39
2018-09-04T11:43:11.572Z,51.60
2018-09-04T11:45:39.916Z,51.46
2018-09-04T11:48:08.167Z,50.92
2018-09-04T11:50:38.036Z,50.49
2018-09-04T11:53:06.256Z,50.87
2018-09-04T11:55:39.136Z,51.84
2018-09-04T11:58:19.336Z,53.59
2018-09-04T12:00:48.896Z,51.77
2018-09-04T12:03:17.875Z,51.49
2018-09-04T12:05:46.432Z,50.51
2018-09-04T12:08:16.830Z,49.82
2018-09-04T12:10:56.276Z,51.05
2018-09-04T12:13:31.656Z,50.04
2018-09-04T12:16:01.273Z,49.40
2018-09-04T12:18:34.016Z,46.80
2018-09-04T12:21:07.841Z,45.17
2018-09-04T12:23:36.577Z,47.82
2018-09-04T12:26:15.955Z,47.29
2018-09-04T12:28:44.375Z,46.77
2018-09-04T12:31:14.535Z,44.94
2018-09-04T12:33:48.045Z,46.07
2018-09-04T12:36:17.183Z,46.78
2018-09-04T12:38:49.035Z,48.13
2018-09-04T12:41:28.483Z,47.44
2018-09-04T12:43:57.151Z,48.94
2018-09-04T12:46:30.555Z,47.60
2018-09-04T12:48:59.316Z,46.47
2018-09-04T12:51:27.935Z,46.96
2018-09-04T12:53:58.124Z,45.74
2018-09-04T12:56:26.775Z,44.78
2018-09-04T12:58:55.196Z,46.16
2018-09-04T13:01:24.455Z,46.75
2018-09-04T13:03:55.175Z,47.35
2018-09-04T13:06:24.175Z,45.58
2018-09-04T13:08:52.725Z,47.03
2018-09-04T13:11:21.315Z,45.87
2018-09-04T13:13:50.055Z,45.60
2018-09-04T13:19:03.903Z,45.43
2018-09-04T13:21:32.335Z,45.06
2018-09-04T13:24:00.575Z,44.78
2018-09-04T13:26:29.004Z,44.78
2018-09-04T13:28:57.335Z,44.64
2018-09-04T13:31:25.858Z,44.39
2018-09-04T13:33:54.207Z,44.44
2018-09-04T13:36:22.559Z,44.45
2018-09-04T13:38:50.954Z,44.90
2018-09-04T13:41:19.355Z,43.50
2018-09-04T13:43:47.835Z,44.35
2018-09-04T13:46:16.195Z,44.42
2018-09-04T13:48:44.855Z,45.54
2018-09-04T13:51:13.055Z,45.24
2018-09-04T13:53:41.595Z,45.37
2018-09-04T13:56:09.896Z,45.53
2018-09-04T13:58:44.856Z,45.53
2018-09-04T14:01:13.236Z,46.17
2018-09-04T14:03:41.676Z,45.53
2018-09-04T14:06:10.104Z,46.37
2018-09-04T14:08:38.516Z,44.88
2018-09-04T14:11:06.865Z,46.82
2018-09-04T14:13:35.596Z,46.90
2018-09-04T14:16:06.945Z,47.08
2018-09-04T14:18:35.497Z,46.79
2018-09-04T14:21:03.821Z,46.35
2018-09-04T14:23:32.206Z,46.20
2018-09-04T14:26:00.523Z,46.40
2018-09-04T14:28:43.278Z,46.38
2018-09-04T14:30:57.316Z,47.30
2018-09-04T14:33:25.837Z,45.96
2018-09-04T14:35:54.290Z,45.33
2018-09-04T14:38:22.635Z,45.30
2018-09-04T14:40:51.175Z,44.75
2018-09-04T14:43:19.475Z,45.00
2018-09-04T14:45:47.916Z,44.61
2018-09-04T14:48:16.322Z,43.83
2018-09-04T14:50:44.707Z,42.01
2018-09-04T14:53:12.975Z,43.75
2018-09-04T14:55:41.567Z,43.37
2018-09-04T14:58:09.936Z,43.63
2018-09-04T15:00:38.363Z,44.16
2018-09-04T15:03:06.883Z,44.25
2018-09-04T15:05:35.455Z,43.91
2018-09-04T15:08:03.775Z,45.03
2018-09-04T15:10:32.384Z,44.71
2018-09-04T15:13:00.856Z,44.26
2018-09-04T15:15:29.256Z,44.03
2018-09-04T15:17:57.595Z,45.06
2018-09-04T15:20:26.120Z,45.57
2018-09-04T15:22:54.538Z,44.70
2018-09-04T15:25:23.169Z,44.33
2018-09-04T15:27:51.596Z,42.84
2018-09-04T15:30:19.936Z,43.88
2018-09-04T15:32:48.675Z,44.50
2018-09-04T15:35:17.156Z,44.39
2018-09-04T15:37:45.516Z,45.00
2018-09-04T15:40:13.955Z,46.21
2018-09-04T15:42:42.613Z,45.51
2018-09-04T15:45:10.995Z,46.45
2018-09-04T15:47:39.375Z,46.08
2018-09-04T15:50:07.775Z,45.93
2018-09-04T15:52:36.276Z,45.87
2018-09-04T15:55:04.706Z,45.92
2018-09-04T15:57:33.086Z,46.19
2018-09-04T16:00:01.509Z,45.54
2018-09-04T16:02:29.846Z,45.10
2018-09-04T16:04:58.430Z,45.38
2018-09-04T16:07:26.774Z,46.37
2018-09-04T16:09:55.269Z,46.00
2018-09-04T16:12:23.487Z,46.57
2018-09-04T16:14:51.845Z,46.46
2018-09-04T16:17:20.392Z,46.95
2018-09-04T16:19:48.719Z,47.22
2018-09-04T16:22:17.001Z,47.37
2018-09-04T16:24:45.505Z,47.95
2018-09-04T16:27:13.756Z,47.84
2018-09-04T16:29:42.217Z,47.94
2018-09-04T16:32:10.596Z,47.79
2018-09-04T16:34:38.837Z,48.17
2018-09-04T16:37:07.124Z,47.36
2018-09-04T16:39:35.464Z,46.73
2018-09-04T16:42:03.835Z,47.32
2018-09-04T16:44:32.129Z,47.55
2018-09-04T16:47:00.530Z,47.52
2018-09-04T16:49:28.761Z,47.40
2018-09-04T16:51:59.001Z,47.84
2018-09-04T16:54:28.061Z,48.22
2018-09-04T16:56:56.369Z,48.56
2018-09-04T16:59:24.702Z,48.43
2018-09-04T17:01:53.002Z,48.92
2018-09-04T17:04:21.308Z,48.70
2018-09-04T17:06:49.680Z,48.52
2018-09-04T17:09:18.021Z,49.58
2018-09-04T17:11:46.710Z,49.61
2018-09-04T17:14:15.046Z,49.00
2018-09-04T17:16:43.475Z,49.16
2018-09-04T17:19:11.834Z,49.46
2018-09-04T17:21:40.061Z,49.65
2018-09-04T17:24:08.360Z,49.65
2018-09-04T17:26:36.845Z,50.07
2018-09-04T17:29:05.258Z,50.18
2018-09-04T17:31:33.694Z,50.77
2018-09-04T17:34:02.118Z,51.46
2018-09-04T17:36:30.397Z,51.35
2018-09-04T17:39:28.679Z,51.41
2018-09-04T17:41:57.072Z,52.07
2018-09-04T17:44:25.379Z,51.61
2018-09-04T17:46:53.642Z,53.16
2018-09-04T17:49:22.107Z,52.96
2018-09-04T17:51:50.532Z,52.27
2018-09-04T17:54:18.806Z,53.25
2018-09-04T17:56:47.207Z,53.31
2018-09-04T17:59:16.512Z,52.59
2018-09-04T18:01:45.017Z,55.57
2018-09-04T18:04:13.291Z,56.77
2018-09-04T18:06:41.605Z,56.40
2018-09-04T18:09:09.967Z,58.04
2018-09-04T18:11:38.305Z,57.66
2018-09-04T18:14:06.531Z,58.42
2018-09-04T18:16:34.875Z,58.33
2018-09-04T18:19:03.194Z,59.51
2018-09-04T18:21:31.686Z,59.74
2018-09-04T18:23:59.911Z,60.90
2018-09-04T18:26:28.268Z,60.86
2018-09-04T18:28:56.548Z,60.60
2018-09-04T18:31:24.869Z,61.93
2018-09-04T18:33:53.208Z,62.33
2018-09-04T18:36:21.562Z,63.17
2018-09-04T18:38:50.180Z,63.00
2018-09-04T18:41:18.749Z,62.90
2018-09-04T18:43:47.185Z,63.27
2018-09-04T18:46:15.468Z,63.30
2018-09-04T18:48:43.888Z,63.99
2018-09-04T18:51:12.152Z,63.22
2018-09-04T18:56:07.989Z,63.45
2018-09-04T18:58:36.278Z,62.85
2018-09-04T19:01:04.737Z,63.55
2018-09-04T19:03:33.245Z,63.95
2018-09-04T19:06:01.521Z,64.26
2018-09-04T19:08:29.823Z,63.92
2018-09-04T19:10:58.156Z,64.78
2018-09-04T19:13:26.548Z,65.22
2018-09-04T19:15:55.034Z,65.79
2018-09-04T19:18:23.500Z,65.35
2018-09-04T19:20:52.909Z,65.69
2018-09-04T19:23:21.381Z,65.66
2018-09-04T19:25:49.776Z,67.95
2018-09-04T19:28:18.136Z,67.52
2018-09-04T19:30:47.051Z,67.73
2018-09-04T19:33:15.408Z,67.34
2018-09-04T19:35:43.894Z,66.83
2018-09-04T19:38:12.209Z,67.68
2018-09-04T19:40:40.497Z,67.61
2018-09-04T19:43:09.172Z,67.67
2018-09-04T19:45:37.701Z,67.30
2018-09-04T19:48:06.262Z,67.43
2018-09-04T19:50:34.816Z,67.39
2018-09-04T19:53:03.112Z,68.15
2018-09-04T19:55:31.471Z,68.69
2018-09-04T19:57:59.884Z,68.23
2018-09-04T20:00:28.300Z,68.21
2018-09-04T20:02:56.777Z,69.35
2018-09-04T20:05:25.237Z,68.79
2018-09-04T20:07:53.857Z,69.28
2018-09-04T20:10:22.297Z,69.84
2018-09-04T20:12:50.832Z,68.92
2018-09-04T20:15:19.312Z,69.42
2018-09-04T20:17:47.893Z,70.21
2018-09-04T20:20:16.296Z,69.56
2018-09-04T20:22:44.705Z,70.46
2018-09-04T20:25:13.206Z,70.35
2018-09-04T20:27:41.478Z,70.31
2018-09-04T20:30:09.876Z,70.65
2018-09-04T20:32:38.155Z,71.26
2018-09-04T20:35:06.676Z,70.73
2018-09-04T20:37:35.235Z,71.02
2018-09-04T20:40:03.859Z,70.98
2018-09-04T20:42:32.181Z,71.25
2018-09-04T20:45:00.500Z,70.67
2018-09-04T20:47:28.780Z,71.84
2018-09-04T20:49:57.249Z,72.17
2018-09-04T20:52:25.905Z,72.79
2018-09-04T20:54:54.507Z,72.17
2018-09-04T20:57:21.354Z,72.53
2018-09-04T21:00:01.314Z,73.32
2018-09-04T21:02:40.409Z,72.42
2018-09-04T21:05:19.721Z,73.68
2018-09-04T21:08:59.193Z,73.36
2018-09-04T21:11:27.570Z,74.43
2018-09-04T21:13:56.230Z,75.00
2018-09-04T21:16:24.508Z,73.66
2018-09-04T21:18:53.122Z,74.74
2018-09-04T21:21:21.578Z,74.86
2018-09-04T21:23:49.858Z,75.01
2018-09-04T21:26:18.340Z,74.88
2018-09-04T21:28:46.761Z,75.17
2018-09-04T21:31:15.108Z,75.66
2018-09-04T21:33:43.760Z,75.22
2018-09-04T21:36:12.080Z,75.26
2018-09-04T21:38:40.540Z,75.58
2018-09-04T21:41:08.920Z,74.85
2018-09-04T21:43:37.224Z,75.53
2018-09-04T21:46:05.818Z,75.34
2018-09-04T21:48:34.057Z,75.49
2018-09-04T21:51:02.346Z,75.77
2018-09-04T21:53:30.545Z,75.95
2018-09-04T21:55:58.746Z,74.41
2018-09-04T21:58:27.006Z,75.02
2018-09-04T22:00:55.527Z,74.41
2018-09-04T22:03:24.026Z,75.79
2018-09-04T22:05:52.506Z,75.57
2018-09-04T22:08:20.837Z,75.36
2018-09-04T22:10:49.186Z,75.87
2018-09-04T22:13:17.505Z,76.45
2018-09-04T22:15:45.747Z,76.38
2018-09-04T22:18:14.007Z,76.64
2018-09-04T22:20:42.349Z,77.09
2018-09-04T22:23:10.683Z,76.99
2018-09-04T22:25:41.907Z,78.38
2018-09-04T22:28:10.415Z,78.18
2018-09-04T22:30:38.846Z,78.69
2018-09-04T22:33:07.107Z,78.61
2018-09-04T22:35:35.395Z,78.88
2018-09-04T22:38:03.775Z,79.30
2018-09-04T22:40:32.107Z,79.39
2018-09-04T22:43:00.367Z,79.45
2018-09-04T22:45:28.747Z,79.21
2018-09-04T22:47:58.410Z,79.93
2018-09-04T22:50:32.187Z,79.63
2018-09-04T22:53:00.508Z,79.51
2018-09-04T22:55:28.767Z,79.30
2018-09-04T22:57:57.110Z,79.36
2018-09-04T23:00:25.379Z,79.79
2018-09-04T23:02:53.666Z,80.25
2018-09-04T23:05:21.865Z,80.03
2018-09-04T23:07:50.220Z,80.10
2018-09-04T23:10:19.367Z,81.16
2018-09-04T23:12:47.569Z,80.77
2018-09-04T23:15:15.636Z,81.07
2018-09-04T23:17:44.007Z,81.46
2018-09-04T23:20:12.270Z,80.74
2018-09-04T23:22:40.643Z,80.71
2018-09-04T23:25:08.922Z,80.25
2018-09-04T23:27:37.239Z,79.88
2018-09-04T23:30:05.804Z,80.19
2018-09-04T23:32:34.110Z,80.09
2018-09-04T23:35:02.350Z,79.37
2018-09-04T23:37:31.746Z,79.18
2018-09-04T23:40:00.013Z,79.57
2018-09-04T23:42:32.235Z,80.56
2018-09-04T23:45:01.742Z,80.01
2018-09-04T23:47:30.098Z,81.07
2018-09-04T23:49:58.234Z,80.67
2018-09-04T23:52:26.400Z,81.38
2018-09-04T23:54:54.595Z,80.99
2018-09-04T23:57:22.778Z,81.91
2018-09-04T23:59:50.850Z,81.37
